createdAt,value
2019-03-18T00:00:34.253Z,4.92
2019-03-18T00:03:02.662Z,7.35
2019-03-18T00:05:31.154Z,10.15
2019-03-18T00:07:59.611Z,4.92
2019-03-18T00:10:28.064Z,4.40
2019-03-18T00:12:56.443Z,5.00
2019-03-18T00:15:24.906Z,10.10
2019-03-18T00:17:54.542Z,7.75
2019-03-18T00:20:22.947Z,7.15
2019-03-18T00:22:51.327Z,4.83
2019-03-18T00:25:19.787Z,6.72
2019-03-18T00:27:48.196Z,5.55
2019-03-18T00:30:22.458Z,4.37
2019-03-18T00:32:50.854Z,6.12
2019-03-18T00:35:19.266Z,4.58
2019-03-18T00:37:47.796Z,5.70
2019-03-18T00:40:17.391Z,5.45
2019-03-18T00:42:45.776Z,6.75
2019-03-18T00:45:15.764Z,6.50
2019-03-18T00:47:44.412Z,4.87
2019-03-18T00:50:14.126Z,5.78
2019-03-18T00:52:42.608Z,8.15
2019-03-18T00:55:11.051Z,9.23
2019-03-18T00:57:39.454Z,9.53
2019-03-18T01:00:15.902Z,7.28
2019-03-18T01:02:44.293Z,7.90
2019-03-18T01:05:13.017Z,8.10
2019-03-18T01:07:41.386Z,6.33
2019-03-18T01:10:12.759Z,12.20
2019-03-18T01:12:41.222Z,11.30
2019-03-18T01:15:10.585Z,15.55
2019-03-18T01:17:38.982Z,11.18
2019-03-18T01:20:11.462Z,13.32
2019-03-18T01:22:39.871Z,5.78
2019-03-18T01:25:12.240Z,10.43
2019-03-18T01:27:40.681Z,6.58
2019-03-18T01:30:15.176Z,4.67
2019-03-18T01:32:43.697Z,5.78
2019-03-18T01:35:12.082Z,4.30
2019-03-18T01:37:40.515Z,7.80
2019-03-18T01:40:13.428Z,12.93
2019-03-18T01:42:41.944Z,13.70
2019-03-18T01:45:10.918Z,10.28
2019-03-18T01:47:39.351Z,10.08
2019-03-18T01:50:13.906Z,11.63
2019-03-18T01:52:42.387Z,11.60
2019-03-18T01:55:10.838Z,9.83
2019-03-18T01:57:39.250Z,13.55
2019-03-18T02:00:11.433Z,16.93
2019-03-18T02:02:39.843Z,15.28
2019-03-18T02:05:09.602Z,18.87
2019-03-18T02:07:38.078Z,16.00
2019-03-18T02:10:11.339Z,8.13
2019-03-18T02:12:39.868Z,9.63
2019-03-18T02:15:10.505Z,11.38
2019-03-18T02:17:38.896Z,13.30
2019-03-18T02:20:11.102Z,13.15
2019-03-18T02:22:39.528Z,14.07
2019-03-18T02:25:09.414Z,17.60
2019-03-18T02:27:37.866Z,17.70
2019-03-18T02:30:11.561Z,17.02
2019-03-18T02:32:40.010Z,16.40
2019-03-18T02:35:08.410Z,16.45
2019-03-18T02:37:36.827Z,13.32
2019-03-18T02:40:07.552Z,10.10
2019-03-18T02:42:36.030Z,19.70
2019-03-18T02:45:06.713Z,17.55
2019-03-18T02:47:35.108Z,16.20
2019-03-18T02:50:04.549Z,14.15
2019-03-18T02:52:33.037Z,15.80
2019-03-18T02:55:01.448Z,15.68
2019-03-18T02:57:29.878Z,18.48
2019-03-18T02:59:59.291Z,20.35
2019-03-18T03:02:27.703Z,16.15
2019-03-18T03:04:56.122Z,19.77
2019-03-18T03:07:24.513Z,26.52
2019-03-18T03:09:52.903Z,13.50
2019-03-18T03:12:21.413Z,9.43
2019-03-18T03:14:49.813Z,18.92
2019-03-18T03:17:21.723Z,26.45
2019-03-18T03:19:49.293Z,19.25
2019-03-18T03:22:17.721Z,18.37
2019-03-18T03:24:46.106Z,19.48
2019-03-18T03:27:14.524Z,17.70
2019-03-18T03:29:42.999Z,18.20
2019-03-18T03:32:11.356Z,19.67
2019-03-18T03:34:39.776Z,17.92
2019-03-18T03:37:08.155Z,16.45
2019-03-18T03:39:36.555Z,24.15
2019-03-18T03:42:04.977Z,21.75
2019-03-18T03:44:33.403Z,17.67
2019-03-18T03:47:01.916Z,25.75
2019-03-18T03:49:30.443Z,24.72
2019-03-18T03:51:58.843Z,19.12
2019-03-18T03:54:27.394Z,21.52
2019-03-18T03:56:55.789Z,23.42
2019-03-18T03:59:24.193Z,22.37
2019-03-18T04:01:52.820Z,20.95
2019-03-18T04:04:21.239Z,23.87
2019-03-18T04:06:49.624Z,24.32
2019-03-18T04:09:18.135Z,30.02
2019-03-18T04:11:46.651Z,26.95
2019-03-18T04:14:15.083Z,23.42
2019-03-18T04:16:49.740Z,26.30
2019-03-18T04:19:13.527Z,25.52
2019-03-18T04:21:41.999Z,22.20
2019-03-18T04:24:10.383Z,27.80
2019-03-18T04:26:38.802Z,40.65
2019-03-18T04:29:07.274Z,21.45
2019-03-18T04:31:35.716Z,30.48
2019-03-18T04:34:04.105Z,20.65
2019-03-18T04:36:32.505Z,22.20
2019-03-18T04:39:00.901Z,26.12
2019-03-18T04:41:29.311Z,44.05
2019-03-18T04:43:57.751Z,38.30
2019-03-18T04:46:26.192Z,43.48
2019-03-18T04:48:54.571Z,26.25
2019-03-18T04:51:22.983Z,36.10
2019-03-18T04:53:51.414Z,28.07
2019-03-18T04:56:19.934Z,37.10
2019-03-18T04:58:48.318Z,30.32
2019-03-18T05:01:16.702Z,39.73
2019-03-18T05:03:45.107Z,32.42
2019-03-18T05:06:13.529Z,31.30
2019-03-18T05:08:41.949Z,26.17
2019-03-18T05:11:10.502Z,39.80
2019-03-18T05:13:38.949Z,42.65
2019-03-18T05:16:07.323Z,30.80
2019-03-18T05:18:36.795Z,26.60
2019-03-18T05:21:05.257Z,38.23
2019-03-18T05:23:33.665Z,31.73
2019-03-18T05:26:02.110Z,29.50
2019-03-18T05:28:30.516Z,26.20
2019-03-18T05:31:00.037Z,18.35
2019-03-18T05:33:28.439Z,32.65
2019-03-18T05:35:56.826Z,26.25
2019-03-18T05:38:25.354Z,25.68
2019-03-18T05:40:53.742Z,26.48
2019-03-18T05:43:22.274Z,29.00
2019-03-18T05:45:50.796Z,34.03
2019-03-18T05:48:19.157Z,26.33
2019-03-18T05:50:47.643Z,26.00
2019-03-18T05:53:16.026Z,21.50
2019-03-18T05:55:44.517Z,21.27
2019-03-18T05:58:12.972Z,20.72
2019-03-18T06:00:41.437Z,18.25
2019-03-18T06:03:09.922Z,25.70
2019-03-18T06:05:38.325Z,22.42
2019-03-18T06:08:06.715Z,23.35
2019-03-18T06:10:35.232Z,20.15
2019-03-18T06:13:03.634Z,19.45
2019-03-18T06:15:32.129Z,20.88
2019-03-18T06:18:00.537Z,20.70
2019-03-18T06:20:28.975Z,17.07
2019-03-18T06:22:57.377Z,21.37
2019-03-18T06:25:25.851Z,23.07
2019-03-18T06:27:54.332Z,20.05
2019-03-18T06:30:22.744Z,19.57
2019-03-18T06:32:51.180Z,25.95
2019-03-18T06:35:20.586Z,28.30
2019-03-18T06:37:49.279Z,16.12
2019-03-18T06:40:17.708Z,22.80
2019-03-18T06:42:46.198Z,20.65
2019-03-18T06:45:14.557Z,22.50
2019-03-18T06:47:42.947Z,20.12
2019-03-18T06:50:12.629Z,17.60
2019-03-18T06:52:41.002Z,20.48
2019-03-18T06:55:09.437Z,20.80
2019-03-18T06:57:37.896Z,25.32
2019-03-18T07:00:09.561Z,20.20
2019-03-18T07:02:38.076Z,25.40
2019-03-18T07:05:07.508Z,17.73
2019-03-18T07:07:35.914Z,18.92
2019-03-18T07:10:07.257Z,19.92
2019-03-18T07:12:35.660Z,18.98
2019-03-18T07:15:04.533Z,21.27
2019-03-18T07:17:32.941Z,15.68
2019-03-18T07:20:01.378Z,24.65
2019-03-18T07:22:29.837Z,30.30
2019-03-18T07:24:58.367Z,18.23
2019-03-18T07:27:26.781Z,28.05
2019-03-18T07:29:55.184Z,29.57
2019-03-18T07:32:23.679Z,26.42
2019-03-18T07:34:52.089Z,25.90
2019-03-18T07:37:20.473Z,26.65
2019-03-18T07:39:48.926Z,32.60
2019-03-18T07:42:17.322Z,26.45
2019-03-18T07:44:45.780Z,32.38
2019-03-18T07:47:14.276Z,30.72
2019-03-18T07:49:42.686Z,34.90
2019-03-18T07:52:11.147Z,30.27
2019-03-18T07:54:39.544Z,20.70
2019-03-18T07:57:07.954Z,39.88
2019-03-18T07:59:36.459Z,29.18
2019-03-18T08:02:04.870Z,19.30
2019-03-18T08:04:37.804Z,22.93
2019-03-18T08:07:03.413Z,25.85
2019-03-18T08:09:31.821Z,16.27
2019-03-18T08:12:00.292Z,16.93
2019-03-18T08:14:28.678Z,19.27
2019-03-18T08:16:57.231Z,24.82
2019-03-18T08:19:25.733Z,29.32
2019-03-18T08:21:54.161Z,30.97
2019-03-18T08:24:22.576Z,25.88
2019-03-18T08:26:51.007Z,25.97
2019-03-18T08:29:19.433Z,21.05
2019-03-18T08:31:47.894Z,19.60
2019-03-18T08:34:16.282Z,16.20
2019-03-18T08:36:44.690Z,26.77
2019-03-18T08:39:13.168Z,19.92
2019-03-18T08:41:41.607Z,20.90
2019-03-18T08:44:32.577Z,26.77
2019-03-18T08:47:00.979Z,25.57
2019-03-18T08:49:29.416Z,17.23
2019-03-18T08:51:57.820Z,24.65
2019-03-18T08:54:26.265Z,22.15
2019-03-18T08:56:55.651Z,22.00
2019-03-18T08:59:24.066Z,19.73
2019-03-18T09:02:13.696Z,23.67
2019-03-18T09:04:42.497Z,25.08
2019-03-18T09:07:10.939Z,25.82
2019-03-18T09:09:43.131Z,18.50
2019-03-18T09:12:11.515Z,29.12
2019-03-18T09:14:39.964Z,25.60
2019-03-18T09:17:08.345Z,17.80
2019-03-18T09:19:36.755Z,23.05
2019-03-18T09:22:05.146Z,18.65
2019-03-18T09:24:33.569Z,18.45
2019-03-18T09:27:02.860Z,22.58
2019-03-18T09:29:31.375Z,27.62
2019-03-18T09:31:59.869Z,26.80
2019-03-18T09:34:28.260Z,28.40
2019-03-18T09:36:56.681Z,22.65
2019-03-18T09:39:25.059Z,30.95
2019-03-18T09:41:53.507Z,24.35
2019-03-18T09:44:21.901Z,35.63
2019-03-18T09:46:50.317Z,21.80
2019-03-18T09:49:21.958Z,31.52
2019-03-18T09:51:48.824Z,27.40
2019-03-18T09:54:17.224Z,27.20
2019-03-18T09:56:45.686Z,21.75
2019-03-18T09:59:14.070Z,25.72
2019-03-18T10:01:44.530Z,21.45
2019-03-18T10:04:12.634Z,25.95
2019-03-18T10:06:41.025Z,13.32
2019-03-18T10:09:09.490Z,10.60
2019-03-18T10:11:38.004Z,16.10
2019-03-18T10:14:06.451Z,13.60
2019-03-18T10:16:34.860Z,14.30
2019-03-18T10:19:03.268Z,17.52
2019-03-18T10:21:31.737Z,19.45
2019-03-18T10:24:00.128Z,20.32
2019-03-18T10:26:28.534Z,15.00
2019-03-18T10:28:56.990Z,16.37
2019-03-18T10:31:25.404Z,17.32
2019-03-18T10:33:53.828Z,22.30
2019-03-18T10:36:24.573Z,13.50
2019-03-18T10:38:53.027Z,21.35
2019-03-18T10:41:21.631Z,14.60
2019-03-18T10:43:50.065Z,17.37
2019-03-18T10:46:18.533Z,21.05
2019-03-18T10:48:47.048Z,18.40
2019-03-18T10:51:15.476Z,19.10
2019-03-18T10:53:44.685Z,15.90
2019-03-18T10:56:13.174Z,16.80
2019-03-18T10:58:41.612Z,19.48
2019-03-18T11:01:09.990Z,15.18
2019-03-18T11:03:39.076Z,19.23
2019-03-18T11:06:07.663Z,14.98
2019-03-18T11:08:36.083Z,26.77
2019-03-18T11:11:04.521Z,18.17
2019-03-18T11:13:33.040Z,19.27
2019-03-18T11:16:01.485Z,18.73
2019-03-18T11:18:29.876Z,18.35
2019-03-18T11:20:58.381Z,17.70
2019-03-18T11:23:26.772Z,15.40
2019-03-18T11:25:55.406Z,11.15
2019-03-18T11:28:23.783Z,12.23
2019-03-18T11:30:52.265Z,11.70
2019-03-18T11:33:20.703Z,14.93
2019-03-18T11:35:50.083Z,13.85
2019-03-18T11:38:18.740Z,14.73
2019-03-18T11:40:47.253Z,16.60
2019-03-18T11:43:16.025Z,19.55
2019-03-18T11:45:44.458Z,20.55
2019-03-18T11:48:13.201Z,14.83
2019-03-18T11:50:41.862Z,16.90
2019-03-18T11:53:14.450Z,19.10
2019-03-18T11:55:40.349Z,17.67
2019-03-18T11:58:08.847Z,21.25
2019-03-18T12:00:37.239Z,18.87
2019-03-18T12:03:05.698Z,25.10
2019-03-18T12:05:34.177Z,31.17
2019-03-18T12:08:02.593Z,22.73
2019-03-18T12:10:31.042Z,19.90
2019-03-18T12:12:59.453Z,22.82
2019-03-18T12:15:28.191Z,16.82
2019-03-18T12:17:57.102Z,29.50
2019-03-18T12:20:25.998Z,34.50
2019-03-18T12:22:54.606Z,28.23
2019-03-18T12:25:22.979Z,25.37
2019-03-18T12:27:51.394Z,31.85
2019-03-18T12:30:20.933Z,27.80
2019-03-18T12:32:49.429Z,19.20
2019-03-18T12:35:17.821Z,16.77
2019-03-18T12:37:46.205Z,31.05
2019-03-18T12:40:15.323Z,24.77
2019-03-18T12:42:43.839Z,24.82
2019-03-18T12:45:15.857Z,19.85
2019-03-18T12:47:48.457Z,17.00
2019-03-18T12:50:38.586Z,12.30
2019-03-18T12:52:52.630Z,19.32
2019-03-18T12:55:22.132Z,22.48
2019-03-18T12:57:50.530Z,23.80
2019-03-18T13:00:36.005Z,21.62
2019-03-18T13:03:04.398Z,29.30
2019-03-18T13:05:32.841Z,15.13
2019-03-18T13:08:01.275Z,14.53
2019-03-18T13:10:29.660Z,22.20
2019-03-18T13:12:58.109Z,27.58
2019-03-18T13:15:26.491Z,27.07
2019-03-18T13:17:54.903Z,20.45
2019-03-18T13:20:23.843Z,23.65
2019-03-18T13:22:54.018Z,19.98
2019-03-18T13:25:22.424Z,18.57
2019-03-18T13:27:50.795Z,14.78
2019-03-18T13:30:25.613Z,15.23
2019-03-18T13:32:54.193Z,13.68
2019-03-18T13:35:22.645Z,14.63
2019-03-18T13:37:51.012Z,19.48
2019-03-18T13:40:20.482Z,20.57
2019-03-18T13:42:48.871Z,14.85
2019-03-18T13:45:18.743Z,23.38
2019-03-18T13:47:47.131Z,19.70
2019-03-18T13:50:17.834Z,23.12
2019-03-18T13:52:46.222Z,21.25
2019-03-18T13:55:14.689Z,22.73
2019-03-18T13:57:43.119Z,26.68
2019-03-18T14:00:16.510Z,24.90
2019-03-18T14:02:44.911Z,18.85
2019-03-18T14:05:13.458Z,17.40
2019-03-18T14:07:41.938Z,28.90
2019-03-18T14:10:15.672Z,15.85
2019-03-18T14:12:44.085Z,15.85
2019-03-18T14:15:16.605Z,24.07
2019-03-18T14:17:45.045Z,30.25
2019-03-18T14:20:18.302Z,23.40
2019-03-18T14:22:46.738Z,25.48
2019-03-18T14:25:15.166Z,21.07
2019-03-18T14:27:43.717Z,28.85
2019-03-18T14:30:15.348Z,28.05
2019-03-18T14:32:43.782Z,23.00
2019-03-18T14:35:12.288Z,24.20
2019-03-18T14:37:40.709Z,29.67
2019-03-18T14:40:18.609Z,29.85
2019-03-18T14:42:46.995Z,24.10
2019-03-18T14:45:18.080Z,19.45
2019-03-18T14:47:46.486Z,24.02
2019-03-18T14:50:15.917Z,19.37
2019-03-18T14:52:44.370Z,23.18
2019-03-18T14:55:13.896Z,19.80
2019-03-18T14:57:42.350Z,34.05
2019-03-18T15:00:29.149Z,30.95
2019-03-18T15:02:57.566Z,20.50
2019-03-18T15:05:26.994Z,22.22
2019-03-18T15:07:55.433Z,20.35
2019-03-18T15:10:26.003Z,18.67
2019-03-18T15:12:54.588Z,20.08
2019-03-18T15:15:22.995Z,29.55
2019-03-18T15:17:51.364Z,21.17
2019-03-18T15:20:27.796Z,18.05
2019-03-18T15:22:56.173Z,31.70
2019-03-18T15:25:28.620Z,23.90
2019-03-18T15:27:57.001Z,22.25
2019-03-18T15:30:25.411Z,14.15
2019-03-18T15:32:53.838Z,22.80
2019-03-18T15:35:22.246Z,21.23
2019-03-18T15:37:50.641Z,25.60
2019-03-18T15:40:24.417Z,19.12
2019-03-18T15:42:52.818Z,19.20
2019-03-18T15:45:21.970Z,19.00
2019-03-18T15:47:50.352Z,22.52
2019-03-18T15:50:24.048Z,17.82
2019-03-18T15:52:52.439Z,22.60
2019-03-18T15:55:23.750Z,22.58
2019-03-18T15:57:50.996Z,20.60
2019-03-18T16:00:29.679Z,23.55
2019-03-18T16:02:58.074Z,17.62
2019-03-18T16:05:26.537Z,30.97
2019-03-18T16:07:55.019Z,20.40
2019-03-18T16:10:23.430Z,21.42
2019-03-18T16:12:51.884Z,29.77
2019-03-18T16:15:20.292Z,23.05
2019-03-18T16:17:48.742Z,16.32
2019-03-18T16:20:24.897Z,26.68
2019-03-18T16:22:53.364Z,20.37
2019-03-18T16:25:21.732Z,25.15
2019-03-18T16:27:50.145Z,23.85
2019-03-18T16:30:22.114Z,22.00
2019-03-18T16:32:50.500Z,28.10
2019-03-18T16:35:18.883Z,26.55
2019-03-18T16:37:47.291Z,29.67
2019-03-18T16:40:20.588Z,20.30
2019-03-18T16:42:49.050Z,19.00
2019-03-18T16:45:18.265Z,25.30
2019-03-18T16:47:46.691Z,24.35
2019-03-18T16:50:26.465Z,19.65
2019-03-18T16:52:54.843Z,22.02
2019-03-18T16:55:23.254Z,22.77
2019-03-18T16:57:51.642Z,23.22
2019-03-18T17:00:24.154Z,25.23
2019-03-18T17:02:52.553Z,15.43
2019-03-18T17:05:20.955Z,13.78
2019-03-18T17:07:49.344Z,49.98
2019-03-18T17:10:18.901Z,16.55
2019-03-18T17:12:47.327Z,37.23
2019-03-18T17:15:20.508Z,21.17
2019-03-18T17:17:48.921Z,32.65
2019-03-18T17:20:17.578Z,27.02
2019-03-18T17:22:49.437Z,16.25
2019-03-18T17:25:30.198Z,15.45
2019-03-18T17:27:58.629Z,13.50
2019-03-18T17:30:27.977Z,20.48
2019-03-18T17:32:56.354Z,12.30
2019-03-18T17:35:24.797Z,22.58
2019-03-18T17:37:53.308Z,20.97
2019-03-18T17:40:21.641Z,21.82
2019-03-18T17:42:50.077Z,23.62
2019-03-18T17:45:18.960Z,20.08
2019-03-18T17:47:48.254Z,24.37
2019-03-18T17:50:25.732Z,16.70
2019-03-18T17:53:02.327Z,25.65
2019-03-18T17:55:24.147Z,21.65
2019-03-18T17:57:52.559Z,13.98
2019-03-18T18:00:22.607Z,16.57
2019-03-18T18:02:52.792Z,15.48
2019-03-18T18:05:21.156Z,13.60
2019-03-18T18:07:49.529Z,11.20
2019-03-18T18:10:18.934Z,9.38
2019-03-18T18:12:47.335Z,15.35
2019-03-18T18:15:15.885Z,19.87
2019-03-18T18:17:44.315Z,13.45
2019-03-18T18:20:15.831Z,10.88
2019-03-18T18:22:44.256Z,10.08
2019-03-18T18:25:13.767Z,13.45
2019-03-18T18:27:42.178Z,12.85
2019-03-18T18:30:18.364Z,20.57
2019-03-18T18:32:46.846Z,12.98
2019-03-18T18:35:15.267Z,19.30
2019-03-18T18:37:43.676Z,16.40
2019-03-18T18:40:14.095Z,20.00
2019-03-18T18:42:42.546Z,21.65
2019-03-18T18:45:12.254Z,19.90
2019-03-18T18:47:40.655Z,20.60
2019-03-18T18:50:12.453Z,7.80
2019-03-18T18:52:40.890Z,14.83
2019-03-18T18:55:13.070Z,17.02
2019-03-18T18:57:41.481Z,19.70
2019-03-18T19:00:22.096Z,20.40
2019-03-18T19:02:50.529Z,21.55
2019-03-18T19:05:19.049Z,28.62
2019-03-18T19:07:47.420Z,19.55
2019-03-18T19:10:17.926Z,16.42
2019-03-18T19:12:46.317Z,19.17
2019-03-18T19:15:22.481Z,13.45
2019-03-18T19:17:50.850Z,24.40
2019-03-18T19:20:19.315Z,25.88
2019-03-18T19:22:47.710Z,19.90
2019-03-18T19:25:18.977Z,21.27
2019-03-18T19:27:47.366Z,17.60
2019-03-18T19:30:20.041Z,28.62
2019-03-18T19:32:48.429Z,17.85
2019-03-18T19:35:16.878Z,31.17
2019-03-18T19:37:45.257Z,20.62
2019-03-18T19:40:22.577Z,30.65
2019-03-18T19:42:50.957Z,33.38
2019-03-18T19:45:19.406Z,28.00
2019-03-18T19:47:47.830Z,33.95
2019-03-18T19:50:26.329Z,24.25
2019-03-18T19:52:54.784Z,23.42
2019-03-18T19:55:23.218Z,34.50
2019-03-18T19:57:51.672Z,27.17
2019-03-18T20:00:30.218Z,29.65
2019-03-18T20:02:58.594Z,32.08
2019-03-18T20:05:27.034Z,23.98
2019-03-18T20:07:55.438Z,28.85
2019-03-18T20:10:31.117Z,35.68
2019-03-18T20:12:59.534Z,18.75
2019-03-18T20:15:27.953Z,25.17
2019-03-18T20:17:56.408Z,28.15
2019-03-18T20:20:24.789Z,25.55
2019-03-18T20:22:53.226Z,31.17
2019-03-18T20:25:21.612Z,27.95
2019-03-18T20:27:50.100Z,34.40
2019-03-18T20:30:19.518Z,28.70
2019-03-18T20:32:47.902Z,23.27
2019-03-18T20:35:18.533Z,34.63
2019-03-18T20:37:46.970Z,23.42
2019-03-18T20:40:16.090Z,41.30
2019-03-18T20:42:44.548Z,35.00
2019-03-18T20:45:17.903Z,37.20
2019-03-18T20:47:46.325Z,31.25
2019-03-18T20:50:21.615Z,30.27
2019-03-18T20:52:50.003Z,33.90
2019-03-18T20:55:18.409Z,35.17
2019-03-18T20:57:55.974Z,34.92
2019-03-18T21:00:24.754Z,23.55
2019-03-18T21:02:53.162Z,34.63
2019-03-18T21:05:21.559Z,32.93
2019-03-18T21:07:50.092Z,28.62
2019-03-18T21:10:20.476Z,37.58
2019-03-18T21:12:48.905Z,34.95
2019-03-18T21:15:18.021Z,40.17
2019-03-18T21:17:46.395Z,24.35
2019-03-18T21:20:21.162Z,32.75
2019-03-18T21:22:49.538Z,30.60
2019-03-18T21:25:17.921Z,32.78
2019-03-18T21:27:46.349Z,30.95
2019-03-18T21:30:19.220Z,35.00
2019-03-18T21:32:47.677Z,33.88
2019-03-18T21:35:16.012Z,23.10
2019-03-18T21:37:44.420Z,25.02
2019-03-18T21:40:15.337Z,34.00
2019-03-18T21:42:43.757Z,24.95
2019-03-18T21:45:16.674Z,49.65
2019-03-18T21:47:45.094Z,32.88
2019-03-18T21:50:15.466Z,30.57
2019-03-18T21:52:43.873Z,32.60
2019-03-18T21:55:12.599Z,28.98
2019-03-18T21:57:41.066Z,29.50
2019-03-18T22:00:19.869Z,40.90
2019-03-18T22:02:48.272Z,51.25
2019-03-18T22:05:16.733Z,52.50
2019-03-18T22:07:45.162Z,45.15
2019-03-18T22:10:15.289Z,34.98
2019-03-18T22:12:43.737Z,34.65
2019-03-18T22:15:13.458Z,26.02
2019-03-18T22:17:41.838Z,38.92
2019-03-18T22:20:14.051Z,33.13
2019-03-18T22:22:42.434Z,35.58
2019-03-18T22:25:12.302Z,35.83
2019-03-18T22:27:40.678Z,32.30
2019-03-18T22:30:11.940Z,36.45
2019-03-18T22:32:40.480Z,27.55
2019-03-18T22:35:09.443Z,38.42
2019-03-18T22:37:37.925Z,29.12
2019-03-18T22:40:09.322Z,33.98
2019-03-18T22:42:37.705Z,25.70
2019-03-18T22:45:11.143Z,33.42
2019-03-18T22:47:39.526Z,27.10
2019-03-18T22:50:10.308Z,31.60
2019-03-18T22:52:38.725Z,30.32
2019-03-18T22:55:11.806Z,27.50
2019-03-18T22:57:40.197Z,36.38
2019-03-18T23:00:13.427Z,32.65
2019-03-18T23:02:41.884Z,35.58
2019-03-18T23:05:11.328Z,31.20
2019-03-18T23:07:39.769Z,27.60
2019-03-18T23:10:08.438Z,33.67
2019-03-18T23:12:36.977Z,27.75
2019-03-18T23:15:06.693Z,27.52
2019-03-18T23:17:35.143Z,34.67
2019-03-18T23:20:03.843Z,31.97
2019-03-18T23:22:32.258Z,29.70
2019-03-18T23:25:06.889Z,28.50
2019-03-18T23:27:30.723Z,22.45
2019-03-18T23:29:59.105Z,30.70
2019-03-18T23:32:27.509Z,39.27
2019-03-18T23:34:55.950Z,23.30
2019-03-18T23:37:24.387Z,42.83
2019-03-18T23:39:52.768Z,36.28
2019-03-18T23:42:21.321Z,30.12
2019-03-18T23:44:49.741Z,36.85
2019-03-18T23:47:18.110Z,21.45
2019-03-18T23:49:47.576Z,26.12
2019-03-18T23:52:16.216Z,33.50
2019-03-18T23:54:44.609Z,30.57
2019-03-18T23:57:13.596Z,41.58
2019-03-18T23:59:41.966Z,22.90
